createdAt,value
2023-02-08T00:01:08.781Z,22.27
2023-02-08T00:03:36.900Z,23.50
2023-02-08T00:06:05.496Z,26.33
2023-02-08T00:08:35.438Z,24.30
2023-02-08T00:11:03.573Z,29.10
2023-02-08T00:13:32.534Z,30.03
2023-02-08T00:16:00.523Z,24.47
2023-02-08T00:18:29.043Z,23.30
2023-02-08T00:20:57.310Z,25.93
2023-02-08T00:23:25.789Z,24.50
2023-02-08T00:25:55.102Z,25.43
2023-02-08T00:28:23.143Z,28.00
2023-02-08T00:30:51.247Z,29.87
2023-02-08T00:33:19.235Z,26.67
2023-02-08T00:35:47.245Z,26.80
2023-02-08T00:38:15.277Z,22.67
2023-02-08T00:40:43.590Z,30.67
2023-02-08T00:43:12.933Z,27.07
2023-02-08T00:45:41.217Z,23.17
2023-02-08T00:48:09.173Z,27.87
2023-02-08T00:50:37.426Z,27.40
2023-02-08T00:53:05.522Z,28.07
2023-02-08T00:55:33.495Z,26.20
2023-02-08T00:58:01.473Z,24.77
2023-02-08T01:00:30.872Z,26.47
2023-02-08T01:02:58.894Z,24.93
2023-02-08T01:05:26.918Z,26.77
2023-02-08T01:07:54.885Z,26.73
2023-02-08T01:10:22.945Z,26.73
2023-02-08T01:12:50.894Z,30.83
2023-02-08T01:15:19.052Z,32.67
2023-02-08T01:17:48.462Z,30.47
2023-02-08T01:20:16.605Z,26.53
2023-02-08T01:22:44.533Z,31.43
2023-02-08T01:25:12.492Z,31.73
2023-02-08T01:27:40.464Z,25.70
2023-02-08T01:30:09.892Z,29.17
2023-02-08T01:32:37.973Z,26.97
2023-02-08T01:35:08.069Z,32.03
2023-02-08T01:37:36.051Z,29.53
2023-02-08T01:40:04.104Z,27.27
2023-02-08T01:42:32.186Z,30.37
2023-02-08T01:45:23.353Z,28.00
2023-02-08T01:47:55.277Z,31.37
2023-02-08T01:50:30.773Z,32.77
2023-02-08T01:52:59.303Z,28.63
2023-02-08T01:55:31.003Z,28.47
2023-02-08T01:58:03.695Z,32.93
2023-02-08T02:00:33.036Z,33.23
2023-02-08T02:03:02.672Z,34.27
2023-02-08T02:05:36.552Z,34.97
2023-02-08T02:08:05.741Z,34.23
2023-02-08T02:10:36.143Z,35.60
2023-02-08T02:13:07.506Z,36.33
2023-02-08T02:15:35.964Z,36.33
2023-02-08T02:18:06.020Z,36.33
2023-02-08T02:20:48.582Z,37.57
2023-02-08T02:23:40.649Z,40.70
2023-02-08T02:26:50.805Z,36.90
2023-02-08T02:29:49.198Z,35.23
2023-02-08T02:32:32.953Z,41.23
2023-02-08T02:35:06.101Z,42.20
2023-02-08T02:37:44.984Z,38.23
2023-02-08T02:40:22.124Z,39.03
2023-02-08T02:43:18.981Z,41.17
2023-02-08T02:45:54.741Z,38.33
2023-02-08T02:48:31.957Z,36.73
2023-02-08T02:51:04.524Z,40.53
2023-02-08T02:53:38.684Z,39.77
2023-02-08T02:56:11.175Z,43.83
2023-02-08T02:58:41.077Z,36.33
2023-02-08T03:01:09.047Z,33.63
2023-02-08T03:03:38.511Z,38.07
2023-02-08T03:06:10.631Z,36.00
2023-02-08T03:09:08.754Z,35.77
2023-02-08T03:11:38.018Z,38.03
2023-02-08T03:14:44.858Z,37.33
2023-02-08T03:17:31.584Z,38.67
2023-02-08T03:20:08.197Z,43.80
2023-02-08T03:22:45.409Z,43.40
2023-02-08T03:25:18.945Z,42.80
2023-02-08T03:27:53.934Z,41.40
2023-02-08T03:30:28.587Z,40.43
2023-02-08T03:33:01.269Z,35.13
2023-02-08T03:35:34.517Z,36.20
2023-02-08T03:38:06.856Z,39.50
2023-02-08T03:40:38.910Z,33.57
2023-02-08T03:43:14.012Z,45.03
2023-02-08T03:45:47.648Z,40.93
2023-02-08T03:48:18.525Z,38.70
2023-02-08T03:50:51.758Z,42.57
2023-02-08T03:53:22.856Z,38.73
2023-02-08T03:55:56.335Z,39.43
2023-02-08T03:58:27.773Z,34.63
2023-02-08T04:00:59.925Z,42.47
2023-02-08T04:03:30.711Z,44.53
2023-02-08T04:06:00.644Z,40.53
2023-02-08T04:08:28.765Z,38.17
2023-02-08T04:10:56.785Z,37.03
2023-02-08T04:13:24.767Z,32.33
2023-02-08T04:15:52.738Z,40.60
2023-02-08T04:18:20.745Z,43.80
2023-02-08T04:20:48.695Z,39.20
2023-02-08T04:23:18.025Z,41.53
2023-02-08T04:25:45.963Z,39.50
2023-02-08T04:28:14.213Z,40.03
2023-02-08T04:30:42.541Z,41.70
2023-02-08T04:33:13.008Z,41.63
2023-02-08T04:35:40.989Z,32.77
2023-02-08T04:38:08.990Z,37.90
2023-02-08T04:40:38.450Z,37.43
2023-02-08T04:43:06.556Z,39.30
2023-02-08T04:45:34.570Z,35.77
2023-02-08T04:48:03.864Z,39.00
2023-02-08T04:50:31.931Z,34.93
2023-02-08T04:55:54.611Z,39.67
2023-02-08T04:58:22.921Z,35.90
2023-02-08T05:00:50.976Z,39.93
2023-02-08T05:03:18.957Z,38.00
2023-02-08T05:05:46.943Z,44.00
2023-02-08T05:08:14.946Z,47.90
2023-02-08T05:10:45.938Z,40.37
2023-02-08T05:13:15.361Z,39.57
2023-02-08T05:15:43.387Z,36.83
2023-02-08T05:18:11.435Z,38.90
2023-02-08T05:20:39.730Z,37.50
2023-02-08T05:23:07.976Z,39.47
2023-02-08T05:25:35.965Z,47.77
2023-02-08T05:28:04.564Z,35.33
2023-02-08T05:30:33.961Z,45.40
2023-02-08T05:33:02.008Z,37.87
2023-02-08T05:35:30.007Z,38.17
2023-02-08T05:37:57.946Z,41.00
2023-02-08T05:40:25.946Z,39.00
2023-02-08T05:42:53.946Z,46.23
2023-02-08T05:45:21.994Z,42.50
2023-02-08T05:47:51.393Z,35.27
2023-02-08T05:50:19.568Z,44.40
2023-02-08T05:52:47.652Z,40.57
2023-02-08T05:55:15.656Z,40.53
2023-02-08T05:57:43.595Z,48.40
2023-02-08T06:00:12.765Z,37.17
2023-02-08T06:02:40.829Z,42.20
2023-02-08T06:05:10.498Z,41.90
2023-02-08T06:07:38.479Z,38.87
2023-02-08T06:10:07.733Z,40.00
2023-02-08T06:12:36.229Z,44.97
2023-02-08T06:15:04.359Z,38.90
2023-02-08T06:17:32.349Z,38.93
2023-02-08T06:20:00.346Z,43.67
2023-02-08T06:22:29.731Z,45.00
2023-02-08T06:24:57.745Z,40.20
2023-02-08T06:27:25.720Z,40.53
2023-02-08T06:29:53.695Z,45.70
2023-02-08T06:32:21.852Z,46.23
2023-02-08T06:34:51.379Z,46.37
2023-02-08T06:37:19.581Z,45.63
2023-02-08T06:39:48.909Z,46.37
2023-02-08T06:42:16.904Z,45.43
2023-02-08T06:44:54.378Z,47.47
2023-02-08T06:47:22.938Z,48.60
2023-02-08T06:49:51.050Z,50.80
2023-02-08T06:52:19.281Z,47.83
2023-02-08T06:54:48.780Z,45.90
2023-02-08T06:57:16.803Z,41.30
2023-02-08T06:59:44.779Z,42.97
2023-02-08T07:02:14.806Z,39.17
2023-02-08T07:04:43.075Z,44.50
2023-02-08T07:07:11.111Z,42.23
2023-02-08T07:09:39.878Z,42.03
2023-02-08T07:12:10.413Z,40.37
2023-02-08T07:14:41.082Z,43.53
2023-02-08T07:17:09.480Z,37.20
2023-02-08T07:19:37.542Z,42.70
2023-02-08T07:22:08.248Z,38.83
2023-02-08T07:24:37.339Z,40.63
2023-02-08T07:27:06.980Z,45.20
2023-02-08T07:29:36.754Z,34.63
2023-02-08T07:32:06.620Z,39.87
2023-02-08T07:34:37.319Z,45.80
2023-02-08T07:37:05.817Z,38.83
2023-02-08T07:39:33.895Z,42.53
2023-02-08T07:42:01.905Z,40.47
2023-02-08T07:44:29.890Z,41.60
2023-02-08T07:46:59.294Z,44.80
2023-02-08T07:49:27.309Z,47.43
2023-02-08T07:51:55.367Z,44.93
2023-02-08T07:54:23.496Z,46.30
2023-02-08T07:56:51.484Z,47.17
2023-02-08T07:59:19.523Z,48.10
2023-02-08T08:01:47.559Z,40.97
2023-02-08T08:04:16.952Z,39.77
2023-02-08T08:06:46.518Z,48.80
2023-02-08T08:09:15.652Z,52.00
2023-02-08T08:11:43.617Z,44.87
2023-02-08T08:14:11.581Z,45.53
2023-02-08T08:16:40.496Z,47.67
2023-02-08T08:19:08.489Z,50.63
2023-02-08T08:21:37.918Z,45.60
2023-02-08T08:24:06.033Z,126.70
2023-02-08T08:26:35.231Z,67.47
2023-02-08T08:29:03.311Z,95.40
2023-02-08T08:31:31.656Z,56.20
2023-02-08T08:33:59.647Z,62.67
2023-02-08T08:36:27.622Z,62.00
2023-02-08T08:38:56.961Z,58.27
2023-02-08T08:41:27.202Z,52.50
2023-02-08T08:43:55.258Z,159.53
2023-02-08T08:46:23.328Z,148.50
2023-02-08T08:48:52.030Z,137.57
2023-02-08T08:51:20.063Z,145.93
2023-02-08T08:53:48.055Z,74.90
2023-02-08T08:56:17.410Z,76.67
2023-02-08T08:58:45.427Z,59.87
2023-02-08T09:01:14.039Z,66.63
2023-02-08T09:03:42.095Z,95.60
2023-02-08T09:06:10.110Z,125.30
2023-02-08T09:08:38.275Z,91.57
2023-02-08T09:11:07.736Z,56.97
2023-02-08T09:13:37.632Z,49.80
2023-02-08T09:16:09.575Z,46.90
2023-02-08T09:18:37.890Z,84.40
2023-02-08T09:21:10.500Z,78.70
2023-02-08T09:23:39.124Z,73.23
2023-02-08T09:26:09.562Z,49.43
2023-02-08T09:28:39.070Z,51.80
2023-02-08T09:31:10.606Z,57.17
2023-02-08T09:33:38.763Z,77.73
2023-02-08T09:36:08.489Z,53.90
2023-02-08T09:38:37.305Z,74.70
2023-02-08T09:41:25.610Z,78.80
2023-02-08T09:44:09.184Z,57.23
2023-02-08T09:46:40.579Z,56.10
2023-02-08T09:49:15.433Z,50.23
2023-02-08T09:51:47.674Z,51.70
2023-02-08T09:54:20.035Z,60.67
2023-02-08T09:56:50.100Z,64.20
2023-02-08T09:59:23.917Z,59.53
2023-02-08T10:01:54.883Z,53.90
2023-02-08T10:04:29.129Z,43.60
2023-02-08T10:06:57.435Z,50.27
2023-02-08T10:09:27.975Z,47.00
2023-02-08T10:12:07.797Z,45.90
2023-02-08T10:14:53.118Z,39.47
2023-02-08T10:17:46.195Z,52.63
2023-02-08T10:20:41.613Z,49.50
2023-02-08T10:23:25.765Z,46.07
2023-02-08T10:26:15.838Z,44.97
2023-02-08T10:29:16.466Z,67.43
2023-02-08T10:31:58.384Z,83.90
2023-02-08T10:34:37.209Z,57.13
2023-02-08T10:37:14.317Z,77.20
2023-02-08T10:39:42.731Z,62.07
2023-02-08T10:42:16.327Z,58.47
2023-02-08T10:44:57.494Z,49.73
2023-02-08T10:47:39.862Z,46.33
2023-02-08T10:50:15.182Z,60.30
2023-02-08T10:52:43.196Z,44.87
2023-02-08T10:55:16.262Z,38.53
2023-02-08T10:57:47.901Z,41.60
2023-02-08T11:00:21.319Z,44.53
2023-02-08T11:02:53.105Z,39.97
2023-02-08T11:05:32.022Z,34.50
2023-02-08T11:08:08.153Z,36.27
2023-02-08T11:10:36.622Z,35.97
2023-02-08T11:13:07.903Z,37.37
2023-02-08T11:15:40.935Z,36.63
2023-02-08T11:18:21.262Z,36.67
2023-02-08T11:20:51.087Z,38.53
2023-02-08T11:23:23.752Z,38.43
2023-02-08T11:25:52.358Z,32.93
2023-02-08T11:28:26.664Z,41.53
2023-02-08T11:31:03.446Z,32.13
2023-02-08T11:33:32.959Z,35.73
2023-02-08T11:36:05.353Z,36.30
2023-02-08T11:38:36.381Z,36.17
2023-02-08T11:41:14.274Z,30.73
2023-02-08T11:43:42.759Z,33.13
2023-02-08T11:46:12.157Z,33.73
2023-02-08T11:48:45.566Z,37.80
2023-02-08T11:51:24.423Z,39.27
2023-02-08T11:53:52.429Z,31.03
2023-02-08T11:56:22.820Z,38.03
2023-02-08T11:59:03.298Z,35.53
2023-02-08T12:01:32.918Z,35.07
2023-02-08T12:04:05.473Z,32.60
2023-02-08T12:06:59.994Z,35.60
2023-02-08T12:09:43.381Z,35.07
2023-02-08T12:12:20.013Z,40.80
2023-02-08T12:15:00.163Z,38.03
2023-02-08T12:17:48.181Z,31.73
2023-02-08T12:20:38.470Z,32.43
2023-02-08T12:23:35.112Z,34.50
2023-02-08T12:26:13.617Z,33.30
2023-02-08T12:28:52.879Z,36.03
2023-02-08T12:31:29.362Z,35.77
2023-02-08T12:34:06.996Z,33.70
2023-02-08T12:37:15.946Z,33.80
2023-02-08T12:40:12.922Z,33.03
2023-02-08T12:42:53.111Z,38.00
2023-02-08T12:45:55.704Z,32.87
2023-02-08T12:48:37.558Z,34.93
2023-02-08T12:51:16.814Z,35.93
2023-02-08T12:53:51.860Z,31.93
2023-02-08T12:56:23.293Z,34.30
2023-02-08T12:58:59.169Z,30.83
2023-02-08T13:01:33.451Z,31.80
2023-02-08T13:04:07.256Z,30.20
2023-02-08T13:06:42.579Z,26.53
2023-02-08T13:09:21.555Z,30.63
2023-02-08T13:11:53.101Z,28.87
2023-02-08T13:14:31.361Z,31.13
2023-02-08T13:17:05.550Z,31.47
2023-02-08T13:19:41.996Z,33.50
2023-02-08T13:22:15.595Z,30.87
2023-02-08T13:24:50.377Z,28.40
2023-02-08T13:27:22.551Z,26.03
2023-02-08T13:29:52.872Z,27.03
2023-02-08T13:32:29.518Z,27.53
2023-02-08T13:35:02.580Z,28.37
2023-02-08T13:37:32.948Z,29.50
2023-02-08T13:40:06.458Z,31.37
2023-02-08T13:42:38.232Z,26.63
2023-02-08T13:45:09.282Z,27.30
2023-02-08T13:47:45.175Z,25.10
2023-02-08T13:50:50.828Z,22.60
2023-02-08T13:53:20.479Z,24.27
2023-02-08T13:55:59.719Z,24.50
2023-02-08T13:58:39.385Z,22.13
2023-02-08T14:01:18.660Z,22.20
2023-02-08T14:04:25.045Z,24.10
2023-02-08T14:06:57.463Z,24.30
2023-02-08T14:09:29.601Z,22.70
2023-02-08T14:12:03.270Z,22.07
2023-02-08T14:14:34.772Z,23.37
2023-02-08T14:17:22.014Z,27.00
2023-02-08T14:19:59.741Z,21.57
2023-02-08T14:22:29.851Z,22.60
2023-02-08T14:25:05.678Z,20.87
2023-02-08T14:27:39.566Z,23.47
2023-02-08T14:30:10.083Z,24.83
2023-02-08T14:32:40.716Z,20.83
2023-02-08T14:35:19.058Z,21.17
2023-02-08T14:37:47.533Z,18.77
2023-02-08T14:40:36.179Z,19.63
2023-02-08T14:43:31.083Z,22.07
2023-02-08T14:46:35.121Z,18.63
2023-02-08T14:49:06.328Z,18.87
2023-02-08T14:51:38.031Z,19.07
2023-02-08T14:54:18.530Z,20.47
2023-02-08T14:56:54.795Z,24.47
2023-02-08T14:59:27.878Z,18.63
2023-02-08T15:01:59.725Z,19.80
2023-02-08T15:04:28.872Z,20.00
2023-02-08T15:07:22.742Z,17.60
2023-02-08T15:09:50.921Z,22.47
2023-02-08T15:12:25.943Z,18.80
2023-02-08T15:14:57.645Z,17.87
2023-02-08T15:17:35.387Z,19.50
2023-02-08T15:20:06.930Z,19.47
2023-02-08T15:22:37.189Z,18.27
2023-02-08T15:25:22.216Z,21.87
2023-02-08T15:27:52.688Z,17.50
2023-02-08T15:30:32.728Z,16.43
2023-02-08T15:33:02.258Z,20.17
2023-02-08T15:35:32.407Z,18.23
2023-02-08T15:38:00.697Z,16.23
2023-02-08T15:40:30.534Z,20.17
2023-02-08T15:43:05.234Z,19.17
2023-02-08T15:45:35.024Z,23.93
2023-02-08T15:48:03.512Z,17.80
2023-02-08T15:50:33.356Z,17.97
2023-02-08T15:53:03.861Z,17.97
2023-02-08T15:55:35.134Z,22.97
2023-02-08T15:58:07.992Z,17.87
2023-02-08T16:00:38.880Z,19.17
2023-02-08T16:03:10.108Z,19.77
2023-02-08T16:05:39.064Z,16.77
2023-02-08T16:08:08.111Z,17.87
2023-02-08T16:10:43.616Z,19.10
2023-02-08T16:13:19.756Z,19.10
2023-02-08T16:15:57.996Z,15.70
2023-02-08T16:18:40.624Z,15.13
2023-02-08T16:21:22.187Z,22.23
2023-02-08T16:23:52.045Z,20.60
2023-02-08T16:26:23.255Z,19.87
2023-02-08T16:28:58.105Z,19.93
2023-02-08T16:31:30.554Z,20.47
2023-02-08T16:34:01.560Z,17.73
2023-02-08T16:36:34.563Z,21.53
2023-02-08T16:39:23.889Z,19.33
2023-02-08T16:42:14.976Z,18.67
2023-02-08T16:45:13.713Z,23.07
2023-02-08T16:47:44.854Z,21.87
2023-02-08T16:50:16.145Z,18.10
2023-02-08T16:52:44.314Z,17.93
2023-02-08T16:55:19.214Z,18.30
2023-02-08T16:57:50.278Z,19.53
2023-02-08T17:00:22.060Z,18.23
2023-02-08T17:02:52.574Z,19.87
2023-02-08T17:05:22.202Z,24.23
2023-02-08T17:07:50.429Z,19.07
2023-02-08T17:10:23.818Z,17.70
2023-02-08T17:12:52.978Z,16.40
2023-02-08T17:15:24.062Z,16.50
2023-02-08T17:17:54.122Z,14.57
2023-02-08T17:20:23.974Z,15.87
2023-02-08T17:22:53.172Z,18.73
2023-02-08T17:25:21.727Z,17.77
2023-02-08T17:27:53.119Z,17.87
2023-02-08T17:30:25.920Z,16.53
2023-02-08T17:32:56.176Z,15.23
2023-02-08T17:35:25.288Z,17.97
2023-02-08T17:37:54.160Z,16.77
2023-02-08T17:40:23.823Z,21.13
2023-02-08T17:42:53.546Z,14.83
2023-02-08T17:45:22.085Z,14.33
2023-02-08T17:47:50.671Z,15.60
2023-02-08T17:50:20.427Z,16.80
2023-02-08T17:52:49.190Z,17.33
2023-02-08T17:55:18.865Z,14.10
2023-02-08T17:57:47.673Z,14.77
2023-02-08T18:00:18.577Z,16.47
2023-02-08T18:02:47.880Z,15.60
2023-02-08T18:05:16.872Z,15.57
2023-02-08T18:07:46.523Z,16.03
2023-02-08T18:10:15.658Z,17.80
2023-02-08T18:12:44.211Z,14.53
2023-02-08T18:15:15.419Z,17.03
2023-02-08T18:17:44.402Z,15.17
2023-02-08T18:20:14.747Z,13.87
2023-02-08T18:22:43.388Z,15.10
2023-02-08T18:25:14.328Z,17.43
2023-02-08T18:27:42.780Z,17.63
2023-02-08T18:30:12.618Z,20.37
2023-02-08T18:32:40.835Z,19.33
2023-02-08T18:35:09.432Z,18.23
2023-02-08T18:37:38.399Z,17.37
2023-02-08T18:40:09.084Z,15.00
2023-02-08T18:42:38.714Z,18.90
2023-02-08T18:45:07.254Z,17.60
2023-02-08T18:47:36.487Z,21.50
2023-02-08T18:50:05.251Z,21.90
2023-02-08T18:52:33.346Z,22.53
2023-02-08T18:55:01.430Z,15.30
2023-02-08T18:57:29.482Z,18.37
2023-02-08T18:59:58.923Z,20.13
2023-02-08T19:02:27.468Z,16.30
2023-02-08T19:04:55.513Z,20.03
2023-02-08T19:07:23.722Z,17.53
2023-02-08T19:09:51.794Z,16.80
2023-02-08T19:12:21.067Z,21.70
2023-02-08T19:14:50.938Z,20.63
2023-02-08T19:17:20.726Z,20.43
2023-02-08T19:19:49.033Z,20.23
2023-02-08T19:22:17.241Z,18.93
2023-02-08T19:24:45.238Z,22.60
2023-02-08T19:27:13.304Z,27.17
2023-02-08T19:29:41.397Z,22.40
2023-02-08T19:32:09.443Z,20.30
2023-02-08T19:34:38.924Z,21.80
2023-02-08T19:37:06.969Z,20.50
2023-02-08T19:39:35.049Z,20.27
2023-02-08T19:42:03.147Z,20.00
2023-02-08T19:44:31.215Z,23.47
2023-02-08T19:47:00.140Z,20.93
2023-02-08T19:49:28.491Z,22.87
2023-02-08T19:51:58.261Z,20.07
2023-02-08T19:54:26.544Z,23.57
2023-02-08T19:56:55.901Z,17.43
2023-02-08T19:59:26.008Z,16.70
2023-02-08T20:01:54.706Z,18.20
2023-02-08T20:04:23.039Z,19.83
2023-02-08T20:06:52.582Z,17.87
2023-02-08T20:09:22.227Z,19.53
2023-02-08T20:11:57.188Z,16.77
2023-02-08T20:14:26.612Z,20.13
2023-02-08T20:16:54.810Z,19.23
2023-02-08T20:19:22.870Z,19.77
2023-02-08T20:21:50.883Z,17.43
2023-02-08T20:24:19.106Z,16.60
2023-02-08T20:26:49.722Z,17.60
2023-02-08T20:29:18.264Z,19.13
2023-02-08T20:31:48.387Z,22.63
2023-02-08T20:34:20.916Z,17.97
2023-02-08T20:37:05.796Z,18.60
2023-02-08T20:39:35.401Z,15.60
2023-02-08T20:42:05.524Z,17.13
2023-02-08T20:44:33.638Z,22.33
2023-02-08T20:47:01.940Z,19.50
2023-02-08T20:49:32.180Z,19.17
2023-02-08T20:52:00.436Z,20.63
2023-02-08T20:54:28.492Z,16.50
2023-02-08T20:56:56.571Z,18.70
2023-02-08T20:59:25.971Z,21.10
2023-02-08T21:01:53.975Z,23.70
2023-02-08T21:04:23.685Z,25.20
2023-02-08T21:06:52.073Z,17.43
2023-02-08T21:09:21.422Z,20.90
2023-02-08T21:11:50.620Z,24.60
2023-02-08T21:14:21.008Z,26.47
2023-02-08T21:16:52.319Z,20.20
2023-02-08T21:19:21.408Z,21.70
2023-02-08T21:21:51.976Z,25.30
2023-02-08T21:24:20.362Z,25.97
2023-02-08T21:26:48.409Z,22.53
2023-02-08T21:29:16.620Z,24.17
2023-02-08T21:31:44.782Z,19.80
2023-02-08T21:34:14.544Z,20.63
2023-02-08T21:36:42.555Z,19.13
2023-02-08T21:39:10.844Z,18.43
2023-02-08T21:41:39.099Z,24.07
2023-02-08T21:44:08.332Z,19.50
2023-02-08T21:46:36.925Z,18.63
2023-02-08T21:49:22.620Z,18.27
2023-02-08T21:52:09.640Z,23.57
2023-02-08T21:54:44.373Z,20.67
2023-02-08T21:57:16.365Z,23.43
2023-02-08T21:59:44.480Z,20.97
2023-02-08T22:02:15.877Z,21.03
2023-02-08T22:05:01.909Z,20.67
2023-02-08T22:07:40.536Z,19.77
2023-02-08T22:10:09.145Z,20.57
2023-02-08T22:12:37.170Z,18.00
2023-02-08T22:15:05.556Z,18.67
2023-02-08T22:17:33.583Z,21.90
2023-02-08T22:20:01.631Z,21.87
2023-02-08T22:22:31.162Z,21.90
2023-02-08T22:24:59.470Z,19.87
2023-02-08T22:27:27.705Z,21.77
2023-02-08T22:29:55.726Z,19.17
2023-02-08T22:32:23.969Z,23.33
2023-02-08T22:34:52.018Z,19.77
2023-02-08T22:37:20.094Z,20.77
2023-02-08T22:39:49.549Z,21.53
2023-02-08T22:42:17.682Z,22.57
2023-02-08T22:44:46.070Z,20.30
2023-02-08T22:47:14.996Z,19.33
2023-02-08T22:49:43.297Z,22.23
2023-02-08T22:52:12.094Z,21.27
2023-02-08T22:54:40.072Z,20.60
2023-02-08T22:57:10.458Z,18.77
2023-02-08T22:59:39.207Z,18.57
2023-02-08T23:02:07.453Z,22.80
2023-02-08T23:04:37.174Z,21.53
2023-02-08T23:07:05.520Z,20.07
2023-02-08T23:09:33.505Z,23.67
2023-02-08T23:12:01.551Z,17.13
2023-02-08T23:14:30.937Z,19.10
2023-02-08T23:16:58.899Z,19.83
2023-02-08T23:19:27.103Z,20.30
2023-02-08T23:21:55.096Z,23.13
2023-02-08T23:24:23.049Z,20.23
2023-02-08T23:26:51.008Z,14.80
2023-02-08T23:29:18.965Z,21.23
2023-02-08T23:31:48.583Z,19.67
2023-02-08T23:34:16.719Z,21.80
2023-02-08T23:36:44.951Z,23.57
2023-02-08T23:39:12.936Z,17.93
2023-02-08T23:41:40.918Z,18.30
2023-02-08T23:44:08.946Z,18.23
2023-02-08T23:46:37.012Z,17.67
2023-02-08T23:49:06.397Z,19.03
2023-02-08T23:51:34.443Z,20.90
2023-02-08T23:54:02.512Z,21.97
2023-02-08T23:56:32.901Z,23.40
2023-02-08T23:59:01.428Z,16.53
